sensor_id;sensor_type;location;lat;lon;timestamp;pressure;altitude;pressure_sealevel;temperature;humidity
83037;BME280;73029;43.592;1.458;2024-03-06T00:00:57;100609.53;;;9.87;66.35
83037;BME280;73029;43.592;1.458;2024-03-06T00:03:22;100621.88;;;9.85;65.88
83037;BME280;73029;43.592;1.458;2024-03-06T00:05:48;100627.19;;;9.82;66.50
83037;BME280;73029;43.592;1.458;2024-03-06T00:08:13;100627.19;;;9.82;66.63
83037;BME280;73029;43.592;1.458;2024-03-06T00:10:40;100629.81;;;9.84;66.39
83037;BME280;73029;43.592;1.458;2024-03-06T00:13:05;100635.09;;;9.81;66.43
83037;BME280;73029;43.592;1.458;2024-03-06T00:15:31;100602.69;;;9.63;66.33
83037;BME280;73029;43.592;1.458;2024-03-06T00:17:56;100630.75;;;9.77;67.19
83037;BME280;73029;43.592;1.458;2024-03-06T00:20:23;100628.97;;;9.79;66.97
83037;BME280;73029;43.592;1.458;2024-03-06T00:22:49;100628.09;;;9.77;67.11
83037;BME280;73029;43.592;1.458;2024-03-06T00:25:14;100643.03;;;9.82;66.25
83037;BME280;73029;43.592;1.458;2024-03-06T00:27:40;100643.88;;;9.84;66.18
83037;BME280;73029;43.592;1.458;2024-03-06T00:30:06;100639.47;;;9.85;66.53
83037;BME280;73029;43.592;1.458;2024-03-06T00:32:32;100639.53;;;9.79;65.80
83037;BME280;73029;43.592;1.458;2024-03-06T00:34:57;100637.78;;;9.78;66.51
83037;BME280;73029;43.592;1.458;2024-03-06T00:37:22;100652.78;;;9.71;67.17
83037;BME280;73029;43.592;1.458;2024-03-06T00:39:48;100646.63;;;9.69;66.71
83037;BME280;73029;43.592;1.458;2024-03-06T00:42:13;100644.91;;;9.65;67.11
83037;BME280;73029;43.592;1.458;2024-03-06T00:44:39;100630.84;;;9.63;66.27
83037;BME280;73029;43.592;1.458;2024-03-06T00:47:04;100630.81;;;9.61;66.30
83037;BME280;73029;43.592;1.458;2024-03-06T00:49:30;100637.88;;;9.61;66.28
83037;BME280;73029;43.592;1.458;2024-03-06T00:51:55;100649.34;;;9.55;66.37
83037;BME280;73029;43.592;1.458;2024-03-06T00:54:20;100637.03;;;9.50;66.43
83037;BME280;73029;43.592;1.458;2024-03-06T00:56:46;100638.81;;;9.51;65.72
83037;BME280;73029;43.592;1.458;2024-03-06T00:59:11;100638.81;;;9.51;66.59
83037;BME280;73029;43.592;1.458;2024-03-06T01:01:36;100640.56;;;9.53;67.09
83037;BME280;73029;43.592;1.458;2024-03-06T01:04:02;100632.63;;;9.50;66.70
83037;BME280;73029;43.592;1.458;2024-03-06T01:06:28;100632.63;;;9.50;67.00
83037;BME280;73029;43.592;1.458;2024-03-06T01:08:53;100625.63;;;9.43;66.45
83037;BME280;73029;43.592;1.458;2024-03-06T01:11:19;100636.19;;;9.46;66.94
83037;BME280;73029;43.592;1.458;2024-03-06T01:13:45;100637.94;;;9.47;66.98
83037;BME280;73029;43.592;1.458;2024-03-06T01:16:10;100635.28;;;9.52;67.24
83037;BME280;73029;43.592;1.458;2024-03-06T01:18:36;100636.16;;;9.54;66.86
83037;BME280;73029;43.592;1.458;2024-03-06T01:21:01;100627.44;;;9.44;66.59
83037;BME280;73029;43.592;1.458;2024-03-06T01:23:28;100623.03;;;9.44;66.92
83037;BME280;73029;43.592;1.458;2024-03-06T01:25:54;100622.13;;;9.47;67.30
83037;BME280;73029;43.592;1.458;2024-03-06T01:28:19;100621.22;;;9.48;66.82
83037;BME280;73029;43.592;1.458;2024-03-06T01:30:45;100607.22;;;9.38;65.66
83037;BME280;73029;43.592;1.458;2024-03-06T01:33:11;100622.16;;;9.41;66.03
83037;BME280;73029;43.592;1.458;2024-03-06T01:35:36;100624.81;;;9.39;66.79
83037;BME280;73029;43.592;1.458;2024-03-06T01:38:01;100619.53;;;9.38;66.01
83037;BME280;73029;43.592;1.458;2024-03-06T01:40:27;100622.19;;;9.38;66.99
83037;BME280;73029;43.592;1.458;2024-03-06T01:42:54;100617.78;;;9.38;65.91
83037;BME280;73029;43.592;1.458;2024-03-06T01:45:19;100606.31;;;9.44;66.08
83037;BME280;73029;43.592;1.458;2024-03-06T01:47:45;100603.66;;;9.46;66.95
83037;BME280;73029;43.592;1.458;2024-03-06T01:50:10;100593.94;;;9.52;65.90
83037;BME280;73029;43.592;1.458;2024-03-06T01:52:38;100592.16;;;9.54;66.25
83037;BME280;73029;43.592;1.458;2024-03-06T01:55:06;100589.50;;;9.57;66.37
83037;BME280;73029;43.592;1.458;2024-03-06T01:57:32;100586.84;;;9.63;65.87
83037;BME280;73029;43.592;1.458;2024-03-06T01:59:58;100585.94;;;9.61;65.42
83037;BME280;73029;43.592;1.458;2024-03-06T02:02:24;100590.28;;;9.68;65.27
83037;BME280;73029;43.592;1.458;2024-03-06T02:04:53;100575.31;;;9.72;65.78
83037;BME280;73029;43.592;1.458;2024-03-06T02:07:19;100574.41;;;9.75;65.73
83037;BME280;73029;43.592;1.458;2024-03-06T02:09:45;100577.97;;;9.75;65.36
83037;BME280;73029;43.592;1.458;2024-03-06T02:12:12;100578.84;;;9.76;65.50
83037;BME280;73029;43.592;1.458;2024-03-06T02:14:38;100570.84;;;9.80;65.36
83037;BME280;73029;43.592;1.458;2024-03-06T02:17:03;100562.94;;;9.83;65.90
83037;BME280;73029;43.592;1.458;2024-03-06T02:22:05;100565.53;;;9.88;64.51
83037;BME280;73029;43.592;1.458;2024-03-06T02:24:31;100554.94;;;9.91;64.30
83037;BME280;73029;43.592;1.458;2024-03-06T02:26:56;100550.56;;;9.87;63.82
83037;BME280;73029;43.592;1.458;2024-03-06T02:29:23;100553.16;;;9.91;64.57
83037;BME280;73029;43.592;1.458;2024-03-06T02:31:49;100547.91;;;9.90;64.25
83037;BME280;73029;43.592;1.458;2024-03-06T02:34:14;100547.91;;;9.87;64.65
83037;BME280;73029;43.592;1.458;2024-03-06T02:36:39;100549.69;;;9.89;63.72
83037;BME280;73029;43.592;1.458;2024-03-06T02:39:05;100554.97;;;9.89;63.82
83037;BME280;73029;43.592;1.458;2024-03-06T02:41:35;100554.09;;;9.89;64.42
83037;BME280;73029;43.592;1.458;2024-03-06T02:44:01;100558.47;;;9.87;64.11
83037;BME280;73029;43.592;1.458;2024-03-06T02:46:26;100554.97;;;9.85;63.92
83037;BME280;73029;43.592;1.458;2024-03-06T02:48:52;100555.84;;;9.85;63.79
83037;BME280;73029;43.592;1.458;2024-03-06T02:51:18;100557.63;;;9.85;64.25
83037;BME280;73029;43.592;1.458;2024-03-06T02:53:44;100555.88;;;9.84;64.43
83037;BME280;73029;43.592;1.458;2024-03-06T02:56:16;100546.22;;;9.80;64.35
83037;BME280;73029;43.592;1.458;2024-03-06T02:58:41;100546.19;;;9.81;64.89
83037;BME280;73029;43.592;1.458;2024-03-06T03:01:06;100539.19;;;9.79;64.72
83037;BME280;73029;43.592;1.458;2024-03-06T03:03:34;100549.72;;;9.85;64.53
83037;BME280;73029;43.592;1.458;2024-03-06T03:06:00;100542.66;;;9.85;64.30
83037;BME280;73029;43.592;1.458;2024-03-06T03:08:26;100535.59;;;9.86;64.55
83037;BME280;73029;43.592;1.458;2024-03-06T03:10:51;100530.41;;;9.78;64.10
83037;BME280;73029;43.592;1.458;2024-03-06T03:13:16;100535.69;;;9.77;63.55
83037;BME280;73029;43.592;1.458;2024-03-06T03:15:42;100519.03;;;9.67;64.68
83037;BME280;73029;43.592;1.458;2024-03-06T03:18:08;100529.56;;;9.71;64.16
83037;BME280;73029;43.592;1.458;2024-03-06T03:20:33;100543.66;;;9.67;63.87
83037;BME280;73029;43.592;1.458;2024-03-06T03:23:00;100541.97;;;9.63;64.29
83037;BME280;73029;43.592;1.458;2024-03-06T03:25:26;100537.56;;;9.64;64.85
83037;BME280;73029;43.592;1.458;2024-03-06T03:27:52;100536.66;;;9.65;64.26
83037;BME280;73029;43.592;1.458;2024-03-06T03:30:17;100534.84;;;9.68;64.68
83037;BME280;73029;43.592;1.458;2024-03-06T03:32:47;100534.91;;;9.65;64.64
83037;BME280;73029;43.592;1.458;2024-03-06T03:35:12;100534.00;;;9.66;64.55
83037;BME280;73029;43.592;1.458;2024-03-06T03:37:38;100531.38;;;9.65;64.35
83037;BME280;73029;43.592;1.458;2024-03-06T03:40:04;100528.72;;;9.66;64.90
83037;BME280;73029;43.592;1.458;2024-03-06T03:42:30;100534.91;;;9.64;65.08
83037;BME280;73029;43.592;1.458;2024-03-06T03:44:55;100516.44;;;9.62;64.57
83037;BME280;73029;43.592;1.458;2024-03-06T03:47:20;100525.22;;;9.66;64.39
83037;BME280;73029;43.592;1.458;2024-03-06T03:49:46;100513.78;;;9.65;64.45
83037;BME280;73029;43.592;1.458;2024-03-06T03:52:12;100511.09;;;9.68;64.91
83037;BME280;73029;43.592;1.458;2024-03-06T03:54:38;100516.38;;;9.68;64.47
83037;BME280;73029;43.592;1.458;2024-03-06T03:57:03;100506.75;;;9.66;64.89
83037;BME280;73029;43.592;1.458;2024-03-06T03:59:28;100512.88;;;9.71;64.60
83037;BME280;73029;43.592;1.458;2024-03-06T04:01:54;100520.78;;;9.71;64.65
83037;BME280;73029;43.592;1.458;2024-03-06T04:04:22;100517.28;;;9.69;64.30
83037;BME280;73029;43.592;1.458;2024-03-06T04:06:47;100512.88;;;9.69;64.40
83037;BME280;73029;43.592;1.458;2024-03-06T04:09:13;100518.13;;;9.73;65.17
83037;BME280;73029;43.592;1.458;2024-03-06T04:11:40;100511.97;;;9.72;64.47
83037;BME280;73029;43.592;1.458;2024-03-06T04:14:05;100514.59;;;9.74;64.27
83037;BME280;73029;43.592;1.458;2024-03-06T04:16:32;100521.63;;;9.75;64.78
83037;BME280;73029;43.592;1.458;2024-03-06T04:18:57;100526.91;;;9.76;64.69
83037;BME280;73029;43.592;1.458;2024-03-06T04:21:23;100519.84;;;9.78;64.19
83037;BME280;73029;43.592;1.458;2024-03-06T04:23:48;100520.72;;;9.77;65.00
83037;BME280;73029;43.592;1.458;2024-03-06T04:26:14;100526.00;;;9.79;64.90
83037;BME280;73029;43.592;1.458;2024-03-06T04:28:39;100526.88;;;9.78;64.54
83037;BME280;73029;43.592;1.458;2024-03-06T04:31:05;100512.00;;;9.70;64.22
83037;BME280;73029;43.592;1.458;2024-03-06T04:33:30;100527.78;;;9.77;64.59
83037;BME280;73029;43.592;1.458;2024-03-06T04:35:56;100525.16;;;9.75;65.17
83037;BME280;73029;43.592;1.458;2024-03-06T04:38:21;100526.91;;;9.75;64.99
83037;BME280;73029;43.592;1.458;2024-03-06T04:40:46;100528.69;;;9.76;65.44
83037;BME280;73029;43.592;1.458;2024-03-06T04:43:13;100521.63;;;9.76;65.21
83037;BME280;73029;43.592;1.458;2024-03-06T04:45:38;100523.38;;;9.74;65.16
83037;BME280;73029;43.592;1.458;2024-03-06T04:48:04;100531.31;;;9.74;64.59
83037;BME280;73029;43.592;1.458;2024-03-06T04:50:29;100525.16;;;9.74;64.75
83037;BME280;73029;43.592;1.458;2024-03-06T04:52:55;100522.53;;;9.72;65.32
83037;BME280;73029;43.592;1.458;2024-03-06T04:55:21;100527.81;;;9.72;64.98
83037;BME280;73029;43.592;1.458;2024-03-06T04:57:48;100535.75;;;9.70;65.36
83037;BME280;73029;43.592;1.458;2024-03-06T05:00:14;100528.72;;;9.69;65.44
83037;BME280;73029;43.592;1.458;2024-03-06T05:02:40;100533.13;;;9.67;64.69
83037;BME280;73029;43.592;1.458;2024-03-06T05:05:07;100534.03;;;9.65;65.40
83037;BME280;73029;43.592;1.458;2024-03-06T05:07:33;100535.78;;;9.64;65.09
83037;BME280;73029;43.592;1.458;2024-03-06T05:09:59;100540.13;;;9.68;65.80
83037;BME280;73029;43.592;1.458;2024-03-06T05:12:26;100539.28;;;9.66;65.70
83037;BME280;73029;43.592;1.458;2024-03-06T05:14:52;100541.03;;;9.70;64.94
83037;BME280;73029;43.592;1.458;2024-03-06T05:17:18;100533.09;;;9.70;65.64
83037;BME280;73029;43.592;1.458;2024-03-06T05:19:45;100539.25;;;9.73;65.04
83037;BME280;73029;43.592;1.458;2024-03-06T05:22:10;100530.50;;;9.69;65.90
83037;BME280;73029;43.592;1.458;2024-03-06T05:24:39;100533.94;;;9.76;66.01
83037;BME280;73029;43.592;1.458;2024-03-06T05:27:04;100535.72;;;9.75;65.20
83037;BME280;73029;43.592;1.458;2024-03-06T05:29:30;100531.31;;;9.74;65.81
83037;BME280;73029;43.592;1.458;2024-03-06T05:31:55;100527.78;;;9.77;65.40
83037;BME280;73029;43.592;1.458;2024-03-06T05:34:24;100503.25;;;9.64;65.09
83037;BME280;73029;43.592;1.458;2024-03-06T05:36:49;100529.50;;;9.81;65.17
83037;BME280;73029;43.592;1.458;2024-03-06T05:39:15;100505.00;;;9.63;65.96
83037;BME280;73029;43.592;1.458;2024-03-06T05:41:41;100530.38;;;9.80;65.40
83037;BME280;73029;43.592;1.458;2024-03-06T05:44:07;100529.50;;;9.81;65.42
83037;BME280;73029;43.592;1.458;2024-03-06T05:46:32;100527.72;;;9.81;64.99
83037;BME280;73029;43.592;1.458;2024-03-06T05:48:58;100527.72;;;9.81;65.26
83037;BME280;73029;43.592;1.458;2024-03-06T05:51:24;100533.00;;;9.81;64.81
83037;BME280;73029;43.592;1.458;2024-03-06T05:53:49;100525.97;;;9.80;65.58
83037;BME280;73029;43.592;1.458;2024-03-06T05:56:14;100528.63;;;9.80;65.17
83037;BME280;73029;43.592;1.458;2024-03-06T05:58:40;100528.63;;;9.79;66.05
83037;BME280;73029;43.592;1.458;2024-03-06T06:01:05;100531.28;;;9.79;65.44
83037;BME280;73029;43.592;1.458;2024-03-06T06:03:31;100526.84;;;9.81;65.71
83037;BME280;73029;43.592;1.458;2024-03-06T06:05:56;100524.22;;;9.81;65.86
83037;BME280;73029;43.592;1.458;2024-03-06T06:08:22;100508.44;;;9.76;66.60
83037;BME280;73029;43.592;1.458;2024-03-06T06:10:47;100514.53;;;9.80;65.76
83037;BME280;73029;43.592;1.458;2024-03-06T06:13:13;100511.06;;;9.76;66.15
83037;BME280;73029;43.592;1.458;2024-03-06T06:15:38;100523.34;;;9.79;66.58
83037;BME280;73029;43.592;1.458;2024-03-06T06:18:04;100523.34;;;9.82;66.02
83037;BME280;73029;43.592;1.458;2024-03-06T06:20:29;100519.84;;;9.77;66.09
83037;BME280;73029;43.592;1.458;2024-03-06T06:22:55;100525.09;;;9.80;66.41
83037;BME280;73029;43.592;1.458;2024-03-06T06:25:20;100521.59;;;9.78;66.07
83037;BME280;73029;43.592;1.458;2024-03-06T06:27:46;100528.63;;;9.79;66.97
83037;BME280;73029;43.592;1.458;2024-03-06T06:30:11;100528.69;;;9.76;66.59
83037;BME280;73029;43.592;1.458;2024-03-06T06:32:37;100533.91;;;9.82;66.24
83037;BME280;73029;43.592;1.458;2024-03-06T06:35:04;100538.28;;;9.83;66.70
83037;BME280;73029;43.592;1.458;2024-03-06T06:37:30;100534.75;;;9.84;67.42
83037;BME280;73029;43.592;1.458;2024-03-06T06:39:55;100536.50;;;9.85;66.99
83037;BME280;73029;43.592;1.458;2024-03-06T06:42:21;100533.88;;;9.85;66.78
83037;BME280;73029;43.592;1.458;2024-03-06T06:44:46;100534.72;;;9.87;67.18
83037;BME280;73029;43.592;1.458;2024-03-06T06:47:11;100516.28;;;9.81;67.69
83037;BME280;73029;43.592;1.458;2024-03-06T06:49:37;100525.94;;;9.88;66.80
83037;BME280;73029;43.592;1.458;2024-03-06T06:52:02;100521.53;;;9.88;66.20
83037;BME280;73029;43.592;1.458;2024-03-06T06:54:28;100522.41;;;9.89;67.09
83037;BME280;73029;43.592;1.458;2024-03-06T06:56:53;100519.75;;;9.89;66.85
83037;BME280;73029;43.592;1.458;2024-03-06T06:59:19;100516.28;;;9.82;66.51
83037;BME280;73029;43.592;1.458;2024-03-06T07:01:45;100526.78;;;9.87;66.75
83037;BME280;73029;43.592;1.458;2024-03-06T07:04:11;100522.44;;;9.84;66.39
83037;BME280;73029;43.592;1.458;2024-03-06T07:06:36;100521.56;;;9.84;67.27
83037;BME280;73029;43.592;1.458;2024-03-06T07:09:01;100519.81;;;9.83;67.00
83037;BME280;73029;43.592;1.458;2024-03-06T07:11:30;100511.97;;;9.75;66.85
83037;BME280;73029;43.592;1.458;2024-03-06T07:13:55;100527.75;;;9.78;67.05
83037;BME280;73029;43.592;1.458;2024-03-06T07:16:21;100521.56;;;9.81;66.87
83037;BME280;73029;43.592;1.458;2024-03-06T07:18:47;100524.22;;;9.82;66.85
83037;BME280;73029;43.592;1.458;2024-03-06T07:21:13;100518.06;;;9.82;67.61
83037;BME280;73029;43.592;1.458;2024-03-06T07:23:38;100519.75;;;9.86;66.82
83037;BME280;73029;43.592;1.458;2024-03-06T07:26:04;100516.22;;;9.87;67.42
83037;BME280;73029;43.592;1.458;2024-03-06T07:28:30;100512.72;;;9.89;67.54
83037;BME280;73029;43.592;1.458;2024-03-06T07:30:55;100515.28;;;9.95;66.94
83037;BME280;73029;43.592;1.458;2024-03-06T07:33:20;100518.75;;;9.99;67.19
83037;BME280;73029;43.592;1.458;2024-03-06T07:35:46;100524.03;;;10.02;66.52
83037;BME280;73029;43.592;1.458;2024-03-06T07:38:11;100511.69;;;10.04;66.81
83037;BME280;73029;43.592;1.458;2024-03-06T07:40:37;100525.69;;;10.12;66.25
83037;BME280;73029;43.592;1.458;2024-03-06T07:43:02;100523.03;;;10.15;66.78
83037;BME280;73029;43.592;1.458;2024-03-06T07:45:29;100527.38;;;10.21;65.83
83037;BME280;73029;43.592;1.458;2024-03-06T07:47:54;100517.72;;;10.20;65.70
83037;BME280;73029;43.592;1.458;2024-03-06T07:50:20;100529.13;;;10.22;65.56
83037;BME280;73029;43.592;1.458;2024-03-06T07:52:48;100529.13;;;10.23;65.81
83037;BME280;73029;43.592;1.458;2024-03-06T07:55:14;100524.72;;;10.21;65.13
83037;BME280;73029;43.592;1.458;2024-03-06T07:57:39;100527.38;;;10.26;64.42
83037;BME280;73029;43.592;1.458;2024-03-06T08:00:08;100525.59;;;10.26;64.08
83037;BME280;73029;43.592;1.458;2024-03-06T08:02:42;100531.75;;;10.27;63.70
83037;BME280;73029;43.592;1.458;2024-03-06T08:05:11;100536.16;;;10.28;64.31
83037;BME280;73029;43.592;1.458;2024-03-06T08:07:39;100530.88;;;10.26;63.47
83037;BME280;73029;43.592;1.458;2024-03-06T08:10:10;100537.00;;;10.30;63.47
83037;BME280;73029;43.592;1.458;2024-03-06T08:12:43;100536.97;;;10.33;63.79
83037;BME280;73029;43.592;1.458;2024-03-06T08:15:10;100543.09;;;10.36;64.34
83037;BME280;73029;43.592;1.458;2024-03-06T08:17:38;100532.53;;;10.38;64.08
83037;BME280;73029;43.592;1.458;2024-03-06T08:20:04;100537.78;;;10.39;63.99
83037;BME280;73029;43.592;1.458;2024-03-06T08:22:34;100543.00;;;10.45;63.18
83037;BME280;73029;43.592;1.458;2024-03-06T08:25:07;100546.50;;;10.47;63.51
83037;BME280;73029;43.592;1.458;2024-03-06T08:27:33;100548.25;;;10.50;62.94
83037;BME280;73029;43.592;1.458;2024-03-06T08:29:59;100541.16;;;10.54;63.38
83037;BME280;73029;43.592;1.458;2024-03-06T08:32:24;100540.22;;;10.59;63.64
83037;BME280;73029;43.592;1.458;2024-03-06T08:34:50;100538.34;;;10.67;63.38
83037;BME280;73029;43.592;1.458;2024-03-06T08:37:15;100544.44;;;10.74;63.40
83037;BME280;73029;43.592;1.458;2024-03-06T08:39:41;100546.13;;;10.79;63.42
83037;BME280;73029;43.592;1.458;2024-03-06T08:42:06;100549.59;;;10.85;63.30
83037;BME280;73029;43.592;1.458;2024-03-06T08:44:31;100552.19;;;10.89;63.17
83037;BME280;73029;43.592;1.458;2024-03-06T08:46:57;100553.88;;;10.96;63.80
83037;BME280;73029;43.592;1.458;2024-03-06T08:49:22;100549.44;;;11.00;63.58
83037;BME280;73029;43.592;1.458;2024-03-06T08:51:48;100549.34;;;11.04;62.68
83037;BME280;73029;43.592;1.458;2024-03-06T08:54:13;100548.47;;;11.07;62.80
83037;BME280;73029;43.592;1.458;2024-03-06T08:56:39;100553.63;;;11.15;62.92
83037;BME280;73029;43.592;1.458;2024-03-06T08:59:04;100554.47;;;11.20;63.08
83037;BME280;73029;43.592;1.458;2024-03-06T09:01:29;100557.94;;;11.22;62.87
83037;BME280;73029;43.592;1.458;2024-03-06T09:03:55;100549.97;;;11.23;61.95
83037;BME280;73029;43.592;1.458;2024-03-06T09:06:22;100556.16;;;11.25;62.61
83037;BME280;73029;43.592;1.458;2024-03-06T09:08:48;100555.19;;;11.29;62.17
83037;BME280;73029;43.592;1.458;2024-03-06T09:11:13;100556.00;;;11.35;62.16
83037;BME280;73029;43.592;1.458;2024-03-06T09:13:39;100545.41;;;11.38;62.33
83037;BME280;73029;43.592;1.458;2024-03-06T09:16:04;100550.63;;;11.41;61.44
83037;BME280;73029;43.592;1.458;2024-03-06T09:18:30;100555.88;;;11.42;61.12
83037;BME280;73029;43.592;1.458;2024-03-06T09:20:55;100562.88;;;11.49;62.07
83037;BME280;73029;43.592;1.458;2024-03-06T09:23:21;100563.66;;;11.56;62.27
83037;BME280;73029;43.592;1.458;2024-03-06T09:25:47;100572.38;;;11.61;61.71
83037;BME280;73029;43.592;1.458;2024-03-06T09:28:13;100574.94;;;11.67;61.88
83037;BME280;73029;43.592;1.458;2024-03-06T09:30:38;100567.00;;;11.67;61.79
83037;BME280;73029;43.592;1.458;2024-03-06T09:33:04;100577.50;;;11.73;60.88
83037;BME280;73029;43.592;1.458;2024-03-06T09:35:29;100569.47;;;11.78;60.85
83037;BME280;73029;43.592;1.458;2024-03-06T09:37:55;100574.75;;;11.82;61.44
83037;BME280;73029;43.592;1.458;2024-03-06T09:40:23;100574.63;;;11.90;61.11
83037;BME280;73029;43.592;1.458;2024-03-06T09:42:52;100568.34;;;11.96;61.10
83037;BME280;73029;43.592;1.458;2024-03-06T09:45:18;100568.25;;;12.02;60.64
83037;BME280;73029;43.592;1.458;2024-03-06T09:47:46;100572.53;;;12.09;60.46
83037;BME280;73029;43.592;1.458;2024-03-06T09:50:16;100569.84;;;12.12;60.61
83037;BME280;73029;43.592;1.458;2024-03-06T09:52:43;100571.53;;;12.16;59.83
83037;BME280;73029;43.592;1.458;2024-03-06T09:55:11;100570.56;;;12.22;60.18
83037;BME280;73029;43.592;1.458;2024-03-06T09:57:37;100565.16;;;12.28;58.66
83037;BME280;73029;43.592;1.458;2024-03-06T10:00:04;100557.28;;;12.23;58.74
83037;BME280;73029;43.592;1.458;2024-03-06T10:02:37;100564.22;;;12.32;58.38
83037;BME280;73029;43.592;1.458;2024-03-06T10:05:03;100556.28;;;12.30;58.05
83037;BME280;73029;43.592;1.458;2024-03-06T10:07:29;100558.72;;;12.41;59.09
83037;BME280;73029;43.592;1.458;2024-03-06T10:09:55;100555.88;;;12.52;59.26
83037;BME280;73029;43.592;1.458;2024-03-06T10:12:21;100554.84;;;12.59;59.60
83037;BME280;73029;43.592;1.458;2024-03-06T10:14:52;100553.59;;;12.78;58.85
83037;BME280;73029;43.592;1.458;2024-03-06T10:17:19;100554.13;;;12.96;59.58
83037;BME280;73029;43.592;1.458;2024-03-06T10:19:48;100540.81;;;12.97;58.18
83037;BME280;73029;43.592;1.458;2024-03-06T10:22:16;100550.16;;;13.15;57.95
83037;BME280;73029;43.592;1.458;2024-03-06T10:24:45;100544.56;;;13.30;58.52
83037;BME280;73029;43.592;1.458;2024-03-06T10:27:15;100539.91;;;13.40;57.26
83037;BME280;73029;43.592;1.458;2024-03-06T10:29:41;100536.25;;;13.45;56.66
83037;BME280;73029;43.592;1.458;2024-03-06T10:32:08;100532.63;;;13.50;56.49
83037;BME280;73029;43.592;1.458;2024-03-06T10:34:33;100530.78;;;13.52;56.28
83037;BME280;73029;43.592;1.458;2024-03-06T10:37:02;100526.25;;;13.57;57.05
83037;BME280;73029;43.592;1.458;2024-03-06T10:39:35;100525.16;;;13.65;56.37
83037;BME280;73029;43.592;1.458;2024-03-06T10:42:06;100525.91;;;13.70;55.63
83037;BME280;73029;43.592;1.458;2024-03-06T10:44:34;100518.06;;;13.66;56.34
83037;BME280;73029;43.592;1.458;2024-03-06T10:47:05;100511.59;;;13.76;56.90
83037;BME280;73029;43.592;1.458;2024-03-06T10:49:31;100519.94;;;13.96;57.53
83037;BME280;73029;43.592;1.458;2024-03-06T10:51:59;100518.59;;;14.14;57.44
83037;BME280;73029;43.592;1.458;2024-03-06T10:54:29;100508.53;;;14.27;56.15
83037;BME280;73029;43.592;1.458;2024-03-06T10:57:00;100509.03;;;14.41;56.15
83037;BME280;73029;43.592;1.458;2024-03-06T10:59:27;100508.88;;;14.46;55.11
83037;BME280;73029;43.592;1.458;2024-03-06T11:01:57;100510.31;;;14.61;55.87
83037;BME280;73029;43.592;1.458;2024-03-06T11:04:27;100503.84;;;14.69;54.58
83037;BME280;73029;43.592;1.458;2024-03-06T11:06:56;100500.03;;;14.78;53.77
83037;BME280;73029;43.592;1.458;2024-03-06T11:09:23;100495.31;;;14.88;53.75
83037;BME280;73029;43.592;1.458;2024-03-06T11:11:50;100496.94;;;14.93;54.72
83037;BME280;73029;43.592;1.458;2024-03-06T11:14:16;100495.81;;;15.00;54.39
83037;BME280;73029;43.592;1.458;2024-03-06T11:17:02;100472.91;;;14.95;54.13
83037;BME280;73029;43.592;1.458;2024-03-06T11:19:32;100502.31;;;15.20;53.27
83037;BME280;73029;43.592;1.458;2024-03-06T11:21:57;100498.53;;;15.28;54.66
83037;BME280;73029;43.592;1.458;2024-03-06T11:24:31;100492.09;;;15.35;53.86
83037;BME280;73029;43.592;1.458;2024-03-06T11:26:59;100497.75;;;15.53;54.46
83037;BME280;73029;43.592;1.458;2024-03-06T11:29:32;100500.09;;;15.64;54.58
83037;BME280;73029;43.592;1.458;2024-03-06T11:32:14;100494.56;;;15.70;53.05
83037;BME280;73029;43.592;1.458;2024-03-06T11:34:40;100489.22;;;15.70;53.03
83037;BME280;73029;43.592;1.458;2024-03-06T11:37:06;100478.47;;;15.73;52.42
83037;BME280;73029;43.592;1.458;2024-03-06T11:39:35;100484.47;;;15.79;51.79
83037;BME280;73029;43.592;1.458;2024-03-06T11:42:02;100481.75;;;15.81;51.58
83037;BME280;73029;43.592;1.458;2024-03-06T11:44:28;100480.88;;;15.80;50.82
83037;BME280;73029;43.592;1.458;2024-03-06T11:49:24;100480.00;;;15.80;51.79
83037;BME280;73029;43.592;1.458;2024-03-06T11:51:55;100473.66;;;15.84;51.73
83037;BME280;73029;43.592;1.458;2024-03-06T11:54:20;100473.66;;;15.84;50.84
83037;BME280;73029;43.592;1.458;2024-03-06T11:56:50;100456.97;;;15.77;51.72
83037;BME280;73029;43.592;1.458;2024-03-06T11:59:36;100469.22;;;15.83;51.98
83037;BME280;73029;43.592;1.458;2024-03-06T12:02:05;100463.47;;;15.95;51.57
83037;BME280;73029;43.592;1.458;2024-03-06T12:04:31;100455.03;;;16.07;51.22
83037;BME280;73029;43.592;1.458;2024-03-06T12:06:59;100459.84;;;16.23;50.98
83037;BME280;73029;43.592;1.458;2024-03-06T12:09:25;100449.69;;;16.34;51.33
83037;BME280;73029;43.592;1.458;2024-03-06T12:11:52;100440.31;;;16.46;50.57
83037;BME280;73029;43.592;1.458;2024-03-06T12:14:19;100440.34;;;16.69;50.94
83037;BME280;73029;43.592;1.458;2024-03-06T12:17:05;100432.66;;;16.85;50.85
83037;BME280;73029;43.592;1.458;2024-03-06T12:19:34;100430.84;;;17.09;49.08
83037;BME280;73029;43.592;1.458;2024-03-06T12:22:04;100434.56;;;17.27;49.20
83037;BME280;73029;43.592;1.458;2024-03-06T12:24:30;100425.06;;;17.41;47.42
83037;BME280;73029;43.592;1.458;2024-03-06T12:27:07;100412.38;;;17.46;47.22
83037;BME280;73029;43.592;1.458;2024-03-06T12:29:34;100419.91;;;17.57;45.72
83037;BME280;73029;43.592;1.458;2024-03-06T12:32:04;100415.94;;;17.67;46.58
83037;BME280;73029;43.592;1.458;2024-03-06T12:34:30;100407.56;;;17.77;46.88
83037;BME280;73029;43.592;1.458;2024-03-06T12:36:56;100406.97;;;17.90;45.59
83037;BME280;73029;43.592;1.458;2024-03-06T12:39:23;100409.97;;;18.03;46.24
83037;BME280;73029;43.592;1.458;2024-03-06T12:41:50;100410.84;;;18.03;45.53
83037;BME280;73029;43.592;1.458;2024-03-06T12:44:15;100395.03;;;18.18;45.73
83037;BME280;73029;43.592;1.458;2024-03-06T12:46:41;100397.94;;;18.32;44.85
83037;BME280;73029;43.592;1.458;2024-03-06T12:49:07;100390.25;;;18.45;45.03
83037;BME280;73029;43.592;1.458;2024-03-06T12:51:32;100388.78;;;18.56;43.70
83037;BME280;73029;43.592;1.458;2024-03-06T12:53:58;100381.91;;;18.71;44.09
83037;BME280;73029;43.592;1.458;2024-03-06T12:56:23;100385.56;;;18.88;43.25